EKSP/SKS METAR and TAF weather

Enter ICAO airport designator
Station Type Date Time Source
EKSP METAR 2018/04/20 08:50 UTC NOAA

EKSP 200850Z 21009KT CAVOK 21/12 Q1020 NOSIG


Station Type Date Time Source
EKSP Decoded METAR 2018/04/20 08:50 UTC NOAA

Skrydstrup, Denmark (EKSP) 55-14N 009-16E 47M
Apr 20, 2018 - 04:50 AM EDT / 2018.04.20 0850 UTC
Wind: from the SSW (210 degrees) at 10 MPH (9 KT):0
Visibility: greater than 7 mile(s):0
Temperature: 69 F (21 C)
Dew Point: 53 F (12 C)
Relative Humidity: 56%
Pressure (altimeter): 30.12 in. Hg (1020 hPa)
ob: EKSP 200850Z 21009KT CAVOK 21/12 Q1020 NOSIG
cycle: 9

Station Type Date Time Source
EKSP TAF 2018/04/20 09:31 UTC NOAA

TAF EKSP 200817Z 2009/2106 18008KT 9999 FEW200
BECMG 2011/2014 28014KT
TEMPO 2022/2106 1200 MIFG


Example: see airport list